Terminal Aerodrome Forecast
Issued by NWS Sterling, VA

Home | Current Version | Previous Version | Text Only | Print | Product List | Glossary On
Versions: 1 2 3 4 5 6 7 8 9 10 11 12 13 14 15 16 17 18 19 20 21 22
000
FTUS41 KLWX 012300
TAFIAD
TAF
KIAD 012340Z 0200/0306 16003KT P6SM SCT030 BKN130 OVC180
     FM020400 13004KT P6SM SCT020 OVC035
     FM020700 VRB03KT P6SM SCT008 OVC015
     FM020900 VRB03KT P6SM -SHRA OVC008
     FM021200 03005KT P6SM -SHRA BKN008 OVC015
     FM021600 06005KT P6SM SCT020 BKN035=

USA.gov is the U.S. government's official web portal to all federal, state and local government web resources and services.